Wayton, Arkansas
Current Conditions -  °F | °C
As of 12:53 PM on Friday 21 Nov 2014 (Local Time) from KHRO Reporting Station
Overcast Overcast  
Wind Chill: 36°   Ceiling: 700
Heat Index: 43°   Visibility: 7mi
Dew Point: 39°   Wind: 13mph
Humidity: 86%   Direction: 130°SE
Pressure: 30.22"   Gusts: NA
Location:  35.8413°N, 93.3507°W
Report Text: KHRO 211853Z AUTO 13011KT 7SM OVC007 06/04 A3022 RMK AO2 SLP239 T00610039
Loading
Personal Weather Stations






























Interactive Weather Map New forecast layout! Learn more

10-Day Weather Forecast

Advertisements
Track Severe Weather on mobile